Time;durP1;ratioP1;P1;durP2;ratioP2;P2;SDS_P1;SDS_P2;PMS_P1;PMS_P2;Temp;Humidity;BMP_temperature;BMP_pressure;BME280_temperature;BME280_humidity;BME280_pressure;Samples;Min_cycle;Max_cycle;Signal;HPM_P1;HPM_P2
2022/02/28 06:29:16;;;;;;;22.13;8.43;;;2.50;89.40;;;;;;5012508;28;20049;-65
2022/02/28 06:31:44;;;;;;;23.50;9.40;;;2.50;89.90;;;;;;5024935;28;20026;-66
2022/02/28 06:34:11;;;;;;;22.73;9.63;;;2.50;90.00;;;;;;5021466;28;20049;-66
2022/02/28 06:36:37;;;;;;;20.35;8.48;;;2.40;90.00;;;;;;5022440;28;20029;-65
2022/02/28 06:39:04;;;;;;;22.50;8.63;;;2.40;90.40;;;;;;5023518;28;20041;-65
2022/02/28 06:41:29;;;;;;;22.73;8.77;;;2.50;90.30;;;;;;5024435;28;20029;-65
2022/02/28 06:43:55;;;;;;;21.02;9.13;;;2.50;90.30;;;;;;5023145;28;20037;-66
2022/02/28 06:46:21;;;;;;;21.35;8.77;;;2.50;90.20;;;;;;5022502;28;20029;-65
2022/02/28 06:48:46;;;;;;;21.10;8.70;;;2.60;90.00;;;;;;5024411;28;20044;-65
2022/02/28 06:51:14;;;;;;;21.23;8.60;;;2.60;89.80;;;;;;5024623;28;20032;-65
2022/02/28 06:53:40;;;;;;;19.92;8.02;;;2.60;89.80;;;;;;5024964;28;20484;-65
2022/02/28 06:56:06;;;;;;;21.02;7.82;;;2.50;88.70;;;;;;5021179;28;20026;-66
2022/02/28 06:58:32;;;;;;;20.35;9.15;;;2.40;87.80;;;;;;5021696;28;20034;-66
2022/02/28 07:00:59;;;;;;;22.27;8.55;;;2.30;88.40;;;;;;5021799;28;20497;-65
2022/02/28 07:03:48;;;;;;;21.17;8.75;;;2.30;88.90;;;;;;5020566;28;20170;-65
2022/02/28 07:06:20;;;;;;;20.20;8.73;;;2.30;89.00;;;;;;5020202;28;20046;-66
2022/02/28 07:08:47;;;;;;;22.48;9.55;;;2.30;88.80;;;;;;5015281;28;20041;-65
2022/02/28 07:11:14;;;;;;;24.02;9.57;;;2.40;89.70;;;;;;5019192;28;20033;-66
2022/02/28 07:13:40;;;;;;;24.55;9.43;;;2.50;89.40;;;;;;5023116;28;20571;-65
2022/02/28 07:16:06;;;;;;;21.20;9.57;;;2.60;89.30;;;;;;5023520;28;20033;-65
2022/02/28 07:18:32;;;;;;;26.35;9.57;;;2.70;88.80;;;;;;5027474;28;20029;-65
2022/02/28 07:20:57;;;;;;;20.10;9.75;;;2.90;88.10;;;;;;5019088;28;20041;-65
2022/02/28 07:23:23;;;;;;;21.30;9.93;;;3.00;86.70;;;;;;5022874;28;20094;-66
2022/02/28 07:25:49;;;;;;;22.48;9.20;;;3.10;85.10;;;;;;5017494;28;20037;-65
2022/02/28 07:28:15;;;;;;;21.67;9.70;;;3.20;85.00;;;;;;5020050;28;20071;-66
2022/02/28 07:30:41;;;;;;;21.67;9.77;;;3.30;84.70;;;;;;5023845;28;20033;-66
2022/02/28 07:33:06;;;;;;;25.23;10.75;;;3.50;84.30;;;;;;5023408;28;20033;-66
2022/02/28 07:35:35;;;;;;;22.38;9.57;;;3.60;83.50;;;;;;5022636;28;20034;-66
2022/02/28 07:38:01;;;;;;;22.90;10.23;;;3.90;82.90;;;;;;5020891;28;20075;-65
2022/02/28 07:40:27;;;;;;;22.50;10.55;;;4.30;79.70;;;;;;5023825;28;20571;-65
2022/02/28 07:42:53;;;;;;;22.95;10.25;;;4.30;79.30;;;;;;5025285;28;20125;-65
2022/02/28 07:45:21;;;;;;;22.15;10.98;;;4.50;79.50;;;;;;5023184;28;20452;-65
2022/02/28 07:47:47;;;;;;;28.00;12.55;;;4.40;77.80;;;;;;5020165;28;20072;-65
2022/02/28 07:50:13;;;;;;;32.65;14.50;;;4.50;78.30;;;;;;5020063;28;20421;-66
2022/02/28 07:52:39;;;;;;;29.08;13.88;;;4.50;78.80;;;;;;5022823;28;20043;-66
2022/02/28 07:55:05;;;;;;;25.10;12.02;;;4.50;78.60;;;;;;5022374;28;20550;-65
2022/02/28 07:57:31;;;;;;;26.65;12.02;;;4.50;79.00;;;;;;5023031;28;20021;-65
2022/02/28 07:59:57;;;;;;;26.33;10.88;;;4.40;79.10;;;;;;5023176;28;20041;-64
2022/02/28 08:02:24;;;;;;;26.05;11.60;;;4.40;79.20;;;;;;5023207;28;20048;-64
2022/02/28 08:04:50;;;;;;;26.70;11.52;;;4.50;78.90;;;;;;5021555;28;20061;-64
2022/02/28 08:07:16;;;;;;;32.47;14.68;;;4.60;78.30;;;;;;5022930;28;20041;-64
2022/02/28 08:09:41;;;;;;;30.05;12.23;;;4.80;78.00;;;;;;5021298;28;20028;-64
2022/02/28 08:12:07;;;;;;;35.55;13.38;;;4.90;77.00;;;;;;5018414;28;20087;-64
2022/02/28 08:14:33;;;;;;;23.40;11.35;;;5.10;76.90;;;;;;5022527;28;20220;-64
2022/02/28 08:16:59;;;;;;;28.40;12.23;;;5.20;76.30;;;;;;5012763;28;20033;-64
2022/02/28 08:19:25;;;;;;;25.58;11.45;;;5.40;76.00;;;;;;5022041;28;20045;-65
2022/02/28 08:21:51;;;;;;;26.48;12.05;;;5.50;74.70;;;;;;5015490;28;20097;-63
2022/02/28 08:24:17;;;;;;;24.90;11.70;;;5.70;73.60;;;;;;5019726;28;20409;-64
2022/02/28 08:26:43;;;;;;;27.08;12.93;;;5.80;72.80;;;;;;5018689;28;20062;-63
2022/02/28 08:29:09;;;;;;;27.48;11.50;;;5.90;73.10;;;;;;5022098;28;20052;-63
2022/02/28 08:31:35;;;;;;;26.38;11.45;;;6.10;71.40;;;;;;5025193;28;20021;-63
2022/02/28 08:34:01;;;;;;;24.45;11.45;;;6.10;70.80;;;;;;5019176;28;20117;-63
2022/02/28 08:36:26;;;;;;;27.67;11.57;;;6.10;72.20;;;;;;5019590;28;20128;-63
2022/02/28 08:38:52;;;;;;;29.05;11.77;;;6.20;71.70;;;;;;5021608;28;20572;-64
2022/02/28 08:41:18;;;;;;;26.17;11.63;;;6.20;70.70;;;;;;5021884;28;20037;-62
2022/02/28 08:43:44;;;;;;;25.92;11.60;;;6.10;70.20;;;;;;5014353;28;20041;-65
2022/02/28 08:46:10;;;;;;;22.70;12.10;;;6.00;69.70;;;;;;5021595;28;20487;-69
2022/02/28 08:48:36;;;;;;;29.27;11.77;;;5.90;70.70;;;;;;5019427;28;20087;-64
2022/02/28 08:51:02;;;;;;;24.23;11.55;;;6.00;71.10;;;;;;5021094;28;20704;-63
2022/02/28 08:53:28;;;;;;;26.27;12.75;;;6.10;70.50;;;;;;5019495;28;20068;-64
2022/02/28 08:55:54;;;;;;;23.10;11.23;;;6.50;69.50;;;;;;5015510;28;20116;-63
2022/02/28 08:58:23;;;;;;;25.05;10.25;;;7.00;67.80;;;;;;5018742;28;20128;-63
2022/02/28 09:00:49;;;;;;;28.65;11.00;;;7.30;65.50;;;;;;5017147;28;20087;-68
2022/02/28 09:03:15;;;;;;;21.80;10.60;;;7.90;64.00;;;;;;5020681;28;20041;-62
2022/02/28 09:05:41;;;;;;;21.63;9.68;;;8.90;61.40;;;;;;5020663;28;20627;-64
2022/02/28 09:08:06;;;;;;;22.17;10.15;;;8.90;59.80;;;;;;5016674;28;20033;-64
2022/02/28 09:10:32;;;;;;;22.40;9.60;;;8.60;60.50;;;;;;5021342;28;20556;-64
2022/02/28 09:12:58;;;;;;;21.33;10.02;;;9.60;57.20;;;;;;5020636;28;20053;-64
2022/02/28 09:15:24;;;;;;;15.93;9.10;;;13.10;48.40;;;;;;5020632;28;20203;-64
2022/02/28 09:17:50;;;;;;;22.58;10.13;;;14.80;44.30;;;;;;5020830;28;20029;-64
2022/02/28 09:20:15;;;;;;;22.52;9.98;;;15.20;42.10;;;;;;5018977;28;20726;-64
2022/02/28 09:22:42;;;;;;;20.42;9.85;;;16.40;39.80;;;;;;5018949;28;20449;-64
2022/02/28 09:25:08;;;;;;;17.52;9.85;;;19.70;35.20;;;;;;5017164;28;20033;-64
2022/02/28 09:27:34;;;;;;;18.00;10.27;;;22.50;30.60;;;;;;5021270;28;20033;-64
2022/02/28 09:30:01;;;;;;;16.33;10.27;;;24.70;28.00;;;;;;5017640;28;20033;-64
2022/02/28 09:32:27;;;;;;;19.30;10.00;;;26.00;26.30;;;;;;5019246;28;20060;-64
2022/02/28 09:34:53;;;;;;;18.52;10.93;;;24.50;27.00;;;;;;5020763;28;20552;-64
2022/02/28 09:37:19;;;;;;;17.83;10.07;;;20.80;30.10;;;;;;5021440;28;20095;-64
2022/02/28 09:39:45;;;;;;;27.20;10.55;;;17.30;35.40;;;;;;5019767;28;20031;-64
2022/02/28 09:42:32;;;;;;;16.60;9.80;;;14.80;40.00;;;;;;5028255;28;20462;-64
2022/02/28 09:45:27;;;;;;;19.20;9.88;;;12.80;44.60;;;;;;5035577;28;20041;-64
2022/02/28 09:48:25;;;;;;;22.48;11.15;;;13.40;44.40;;;;;;5026348;28;20041;-64
2022/02/28 09:51:10;;;;;;;19.85;10.70;;;16.00;38.50;;;;;;5019559;28;20044;-64
2022/02/28 09:54:08;;;;;;;18.65;9.55;;;18.80;34.20;;;;;;5016814;28;20034;-64
2022/02/28 09:57:08;;;;;;;22.02;10.38;;;19.70;31.90;;;;;;5019686;28;20089;-64
2022/02/28 09:59:50;;;;;;;20.63;10.77;;;22.50;29.70;;;;;;5013469;28;20037;-64
2022/02/28 10:02:16;;;;;;;17.40;9.75;;;23.50;28.00;;;;;;5017876;28;20037;-64
2022/02/28 10:04:42;;;;;;;19.83;10.50;;;21.50;29.70;;;;;;5014551;28;20037;-64
2022/02/28 10:07:18;;;;;;;20.75;10.65;;;20.10;31.30;;;;;;5019635;28;20118;-64
2022/02/28 10:09:44;;;;;;;23.65;11.00;;;20.10;31.10;;;;;;5012642;28;20270;-62
2022/02/28 10:12:10;;;;;;;17.83;8.68;;;21.60;29.30;;;;;;5018021;28;20809;-63
2022/02/28 10:14:35;;;;;;;19.73;9.25;;;22.30;29.10;;;;;;5020018;28;20076;-64
2022/02/28 10:17:05;;;;;;;17.83;10.05;;;23.20;28.10;;;;;;5018503;28;20030;-63
2022/02/28 10:19:32;;;;;;;22.45;10.38;;;24.00;26.90;;;;;;5018149;28;20026;-63
2022/02/28 10:22:04;;;;;;;18.48;10.63;;;24.50;26.40;;;;;;5016695;28;20052;-64
2022/02/28 10:24:39;;;;;;;18.05;10.82;;;24.40;26.50;;;;;;5019219;28;20045;-64
2022/02/28 10:27:07;;;;;;;18.27;10.73;;;26.10;25.50;;;;;;5017985;28;20069;-64
2022/02/28 10:29:53;;;;;;;17.40;9.80;;;27.20;24.90;;;;;;5007853;28;20075;-64
2022/02/28 10:32:50;;;;;;;21.35;11.10;;;28.10;24.40;;;;;;5021405;28;20056;-64
2022/02/28 10:38:51;;;;;;;18.40;10.38;;;27.30;24.70;;;;;;5022081;28;20120;-64
2022/02/28 10:41:18;;;;;;;19.50;10.95;;;27.10;24.20;;;;;;5020316;28;20029;-64
2022/02/28 10:43:45;;;;;;;17.73;9.13;;;26.80;24.40;;;;;;5020669;28;20022;-64
2022/02/28 10:46:26;;;;;;;18.65;9.02;;;27.50;23.50;;;;;;5020433;28;20071;-64
2022/02/28 10:48:56;;;;;;;17.00;9.30;;;27.90;23.30;;;;;;5022892;28;20025;-64
2022/02/28 10:51:22;;;;;;;16.20;9.65;;;28.30;22.90;;;;;;5019878;28;20098;-64
2022/02/28 10:53:48;;;;;;;17.58;9.60;;;28.60;23.00;;;;;;5023019;28;20149;-64
2022/02/28 10:56:13;;;;;;;17.38;10.23;;;29.40;22.80;;;;;;5023465;28;20525;-64
2022/02/28 10:58:39;;;;;;;15.95;9.55;;;29.30;22.80;;;;;;5022177;28;20025;-63
2022/02/28 11:01:09;;;;;;;18.50;10.75;;;28.90;23.30;;;;;;5022874;28;20034;-64
2022/02/28 11:03:49;;;;;;;16.45;10.00;;;29.60;22.90;;;;;;5022666;28;20071;-64
2022/02/28 11:06:24;;;;;;;18.17;10.68;;;30.10;22.20;;;;;;5020681;28;20084;-64
2022/02/28 11:08:51;;;;;;;18.45;10.93;;;30.80;22.20;;;;;;5023595;28;20037;-64
2022/02/28 11:11:17;;;;;;;19.42;10.98;;;30.60;22.40;;;;;;5022198;28;20481;-65
2022/02/28 11:13:45;;;;;;;18.70;11.13;;;30.50;22.40;;;;;;5023283;28;20060;-64
2022/02/28 11:16:13;;;;;;;16.83;9.45;;;30.10;22.20;;;;;;5018901;28;20021;-64
2022/02/28 11:18:40;;;;;;;19.35;10.57;;;29.30;22.20;;;;;;5023180;28;20033;-64
2022/02/28 11:21:07;;;;;;;15.70;9.98;;;27.40;23.40;;;;;;5019687;28;20033;-63
2022/02/28 11:23:44;;;;;;;14.05;9.15;;;27.00;24.50;;;;;;5022186;28;20040;-64
2022/02/28 11:26:10;;;;;;;17.17;9.55;;;25.80;24.20;;;;;;5021029;28;20036;-63
2022/02/28 11:28:37;;;;;;;18.58;9.93;;;21.30;28.40;;;;;;5021627;28;20045;-63
2022/02/28 11:31:10;;;;;;;22.90;10.07;;;17.00;33.00;;;;;;5021879;28;20045;-63
2022/02/28 11:33:35;;;;;;;17.00;10.07;;;13.90;38.90;;;;;;5022826;28;20037;-63
2022/02/28 11:36:02;;;;;;;18.63;9.93;;;11.80;43.40;;;;;;5020743;28;20078;-63
2022/02/28 11:38:27;;;;;;;17.98;9.30;;;10.60;46.40;;;;;;5022333;28;20033;-63
2022/02/28 11:41:02;;;;;;;17.45;9.43;;;9.80;49.20;;;;;;5020549;28;20044;-64
2022/02/28 11:43:36;;;;;;;16.60;9.20;;;9.30;52.30;;;;;;5015774;28;20041;-62
2022/02/28 11:46:05;;;;;;;15.18;6.90;;;9.10;52.20;;;;;;5021552;28;20133;-63
2022/02/28 11:48:33;;;;;;;14.88;7.18;;;8.80;50.90;;;;;;5022430;28;20040;-62
2022/02/28 11:51:19;;;;;;;14.68;7.60;;;8.60;50.90;;;;;;5017150;28;20099;-63
2022/02/28 11:53:53;;;;;;;17.50;6.90;;;8.50;52.20;;;;;;5020606;28;20829;-63
2022/02/28 11:56:19;;;;;;;15.25;6.90;;;8.40;52.70;;;;;;5018365;28;20041;-63
2022/02/28 11:58:48;;;;;;;13.68;6.72;;;8.30;53.20;;;;;;5023027;28;20044;-63
2022/02/28 12:01:14;;;;;;;12.05;6.60;;;8.30;51.80;;;;;;5016127;28;20441;-63
2022/02/28 12:03:50;;;;;;;11.20;5.72;;;8.20;50.90;;;;;;5022548;28;20041;-68
2022/02/28 12:06:47;;;;;;;14.15;6.50;;;8.30;50.50;;;;;;5017878;28;20040;-68
2022/02/28 12:09:32;;;;;;;12.40;6.43;;;8.20;51.80;;;;;;5014092;28;20060;-68
2022/02/28 12:12:13;;;;;;;12.10;6.25;;;8.20;51.70;;;;;;5022033;28;20268;-68
2022/02/28 12:15:01;;;;;;;14.30;6.45;;;8.20;51.30;;;;;;5019706;28;20040;-68
2022/02/28 12:17:33;;;;;;;14.23;6.38;;;8.30;53.00;;;;;;5015016;28;20077;-68
2022/02/28 12:20:18;;;;;;;11.43;6.43;;;8.30;53.00;;;;;;5022201;28;20888;-68
2022/02/28 12:23:05;;;;;;;10.88;5.72;;;8.10;51.70;;;;;;5018062;28;20148;-69
2022/02/28 12:25:37;;;;;;;17.42;6.35;;;8.00;52.10;;;;;;5021234;28;20033;-67
2022/02/28 12:28:27;;;;;;;15.40;6.95;;;8.10;51.50;;;;;;5022121;28;20037;-68
2022/02/28 12:31:03;;;;;;;13.73;7.10;;;8.10;51.80;;;;;;5019295;28;20094;-68
2022/02/28 12:33:35;;;;;;;15.25;7.20;;;8.10;52.30;;;;;;5022098;28;20033;-68
2022/02/28 12:36:15;;;;;;;14.80;6.82;;;8.10;52.00;;;;;;5022369;28;20541;-74
2022/02/28 12:38:49;;;;;;;13.00;6.65;;;8.20;52.70;;;;;;5020967;28;20116;-67
2022/02/28 12:41:21;;;;;;;14.20;6.07;;;8.10;52.20;;;;;;5017957;28;20152;-69
2022/02/28 12:43:48;;;;;;;15.00;6.13;;;8.00;51.30;;;;;;5021713;28;20064;-68
2022/02/28 12:46:24;;;;;;;12.68;6.20;;;8.00;51.80;;;;;;5020910;28;20108;-67
2022/02/28 12:48:51;;;;;;;12.23;5.40;;;8.10;52.40;;;;;;5021519;28;20030;-68
2022/02/28 12:51:20;;;;;;;13.73;5.50;;;8.10;49.90;;;;;;5022289;28;20033;-69
2022/02/28 12:53:46;;;;;;;11.60;4.82;;;8.10;51.20;;;;;;5020755;28;20032;-69
2022/02/28 12:56:14;;;;;;;13.45;6.03;;;8.10;50.40;;;;;;5017893;28;20458;-63
2022/02/28 12:58:42;;;;;;;11.68;5.50;;;7.90;50.70;;;;;;5020470;28;20033;-64
2022/02/28 13:01:11;;;;;;;15.07;6.43;;;8.00;51.10;;;;;;5019080;28;20029;-65
2022/02/28 13:03:42;;;;;;;14.15;5.75;;;8.00;51.10;;;;;;5025240;28;20033;-63
2022/02/28 13:06:09;;;;;;;12.68;5.10;;;8.00;49.60;;;;;;5023758;28;20036;-62
2022/02/28 13:08:44;;;;;;;14.25;6.57;;;8.00;50.10;;;;;;5020506;28;20033;-63
2022/02/28 13:11:16;;;;;;;10.82;4.90;;;8.00;51.20;;;;;;5016831;28;20055;-63
2022/02/28 13:13:44;;;;;;;12.00;5.40;;;8.10;51.30;;;;;;5021256;28;20030;-63
2022/02/28 13:16:12;;;;;;;11.68;5.60;;;8.10;49.50;;;;;;5019900;28;20140;-63
2022/02/28 13:18:39;;;;;;;9.55;5.38;;;8.20;49.20;;;;;;5021050;28;20485;-63
2022/02/28 13:21:06;;;;;;;11.93;5.93;;;8.20;48.10;;;;;;5019905;28;20040;-63
2022/02/28 13:23:34;;;;;;;15.05;6.05;;;8.20;50.10;;;;;;5020337;28;20037;-63
2022/02/28 13:26:00;;;;;;;10.15;5.38;;;8.10;50.00;;;;;;5019617;28;20040;-63
2022/02/28 13:28:38;;;;;;;13.95;5.47;;;8.00;49.90;;;;;;5017617;28;20041;-63
2022/02/28 13:31:06;;;;;;;12.40;6.75;;;8.00;50.10;;;;;;5019766;28;20033;-63
2022/02/28 13:33:33;;;;;;;15.40;6.90;;;8.10;49.90;;;;;;5019644;28;20691;-63
2022/02/28 13:36:00;;;;;;;15.20;6.85;;;8.20;50.10;;;;;;5018035;28;20155;-63
2022/02/28 13:38:27;;;;;;;13.85;6.38;;;8.20;49.30;;;;;;5019480;28;20045;-63
2022/02/28 13:40:53;;;;;;;17.50;7.68;;;8.10;49.00;;;;;;5020401;28;20029;-63
2022/02/28 13:43:19;;;;;;;16.38;6.78;;;8.00;48.30;;;;;;5020282;28;20041;-63
2022/02/28 13:45:50;;;;;;;14.88;6.70;;;7.80;48.70;;;;;;5019420;28;20103;-63
2022/02/28 13:48:24;;;;;;;16.33;7.53;;;7.70;51.50;;;;;;5017764;28;20163;-63
2022/02/28 13:50:56;;;;;;;14.93;6.75;;;7.80;51.90;;;;;;5018481;28;21005;-63
2022/02/28 13:53:24;;;;;;;13.20;7.05;;;7.80;50.70;;;;;;5018643;28;20022;-63
2022/02/28 13:55:52;;;;;;;11.27;5.88;;;7.80;49.60;;;;;;5018841;28;20117;-63
2022/02/28 13:58:28;;;;;;;19.10;7.22;;;7.80;49.30;;;;;;5017478;28;20766;-63
2022/02/28 14:00:55;;;;;;;13.23;6.63;;;7.80;50.60;;;;;;5013755;28;20179;-63
2022/02/28 14:03:27;;;;;;;15.18;7.30;;;7.80;50.80;;;;;;5013770;28;20038;-63
2022/02/28 14:05:56;;;;;;;17.98;7.85;;;7.80;51.20;;;;;;5018231;28;20135;-63
2022/02/28 14:08:23;;;;;;;18.80;7.60;;;7.90;51.90;;;;;;5025199;28;20092;-63
2022/02/28 14:10:59;;;;;;;15.82;6.75;;;7.90;52.30;;;;;;5024356;28;20038;-63
2022/02/28 14:13:35;;;;;;;14.60;7.57;;;7.90;53.10;;;;;;5024216;28;20280;-63
2022/02/28 14:16:25;;;;;;;15.57;7.20;;;7.90;51.50;;;;;;5023082;28;20390;-62
2022/02/28 14:19:09;;;;;;;15.82;6.38;;;7.90;50.50;;;;;;5021468;28;20037;-63
2022/02/28 14:21:47;;;;;;;11.65;5.88;;;7.90;50.70;;;;;;5016448;28;20040;-63
2022/02/28 14:24:32;;;;;;;14.25;6.32;;;7.80;50.70;;;;;;5019051;28;20555;-63
2022/02/28 14:27:28;;;;;;;14.68;6.70;;;7.90;50.60;;;;;;5024728;28;20087;-63
2022/02/28 14:30:30;;;;;;;11.60;6.53;;;7.90;51.80;;;;;;4981947;28;20056;-63
2022/02/28 14:33:09;;;;;;;11.80;5.63;;;7.90;51.30;;;;;;5014173;28;20079;-63
2022/02/28 14:35:37;;;;;;;17.67;7.38;;;7.80;50.30;;;;;;5020335;28;20370;-63
2022/02/28 14:38:03;;;;;;;13.13;6.45;;;7.70;50.10;;;;;;5023582;28;20036;-63
2022/02/28 14:40:30;;;;;;;12.80;6.75;;;7.70;50.40;;;;;;5024057;28;20048;-63
2022/02/28 14:42:57;;;;;;;13.50;5.80;;;7.60;50.60;;;;;;5023776;28;20456;-63
2022/02/28 14:45:24;;;;;;;14.05;6.63;;;7.60;50.80;;;;;;5023576;28;20048;-63
2022/02/28 14:47:50;;;;;;;13.77;6.85;;;7.60;51.70;;;;;;5024337;28;20045;-63
2022/02/28 14:50:17;;;;;;;14.60;6.20;;;7.60;51.80;;;;;;5024132;28;20034;-63
2022/02/28 14:52:46;;;;;;;13.25;6.03;;;7.70;51.30;;;;;;5024130;28;20025;-62
2022/02/28 14:55:12;;;;;;;13.60;6.90;;;7.70;51.00;;;;;;5021307;28;20026;-63
2022/02/28 14:57:38;;;;;;;12.52;6.18;;;7.70;51.70;;;;;;5024779;28;20152;-63
2022/02/28 15:00:06;;;;;;;16.75;7.18;;;7.60;51.20;;;;;;5023956;28;20038;-63
2022/02/28 15:02:32;;;;;;;13.50;7.35;;;7.70;51.60;;;;;;5020883;28;20030;-63
2022/02/28 15:04:58;;;;;;;12.43;6.25;;;7.60;50.90;;;;;;5024109;28;20103;-62
2022/02/28 15:07:23;;;;;;;14.50;6.78;;;7.50;49.70;;;;;;5021952;28;20048;-63
2022/02/28 15:09:49;;;;;;;12.30;5.80;;;7.50;49.70;;;;;;5020881;28;20033;-63
2022/02/28 15:12:15;;;;;;;11.27;5.65;;;7.40;48.20;;;;;;5024774;28;20025;-66
2022/02/28 15:14:41;;;;;;;14.13;5.82;;;7.40;48.80;;;;;;5020362;28;20036;-63
2022/02/28 15:17:06;;;;;;;13.15;6.10;;;7.40;49.40;;;;;;5024006;28;20026;-61
2022/02/28 15:19:32;;;;;;;11.32;5.65;;;7.40;49.50;;;;;;5023982;28;20537;-61
2022/02/28 15:21:58;;;;;;;13.27;5.97;;;7.40;49.20;;;;;;5022594;28;20367;-61
2022/02/28 15:24:23;;;;;;;11.15;4.60;;;7.50;48.80;;;;;;5023789;28;20602;-60
2022/02/28 15:26:52;;;;;;;13.38;5.82;;;7.40;50.40;;;;;;5019996;28;20080;-61
2022/02/28 15:29:18;;;;;;;12.27;6.32;;;7.40;49.40;;;;;;5020913;28;20029;-61
2022/02/28 15:31:44;;;;;;;12.80;5.00;;;7.30;48.80;;;;;;5023358;28;20064;-62
2022/02/28 15:34:10;;;;;;;9.63;4.75;;;7.50;54.60;;;;;;5023180;28;20125;-64
2022/02/28 15:36:36;;;;;;;11.52;5.15;;;7.70;51.80;;;;;;5022325;28;20040;-69
2022/02/28 15:39:03;;;;;;;13.85;5.13;;;7.90;48.80;;;;;;5021987;28;20397;-65
2022/02/28 15:41:28;;;;;;;10.07;5.47;;;8.10;48.80;;;;;;5023598;28;20075;-65
2022/02/28 15:43:54;;;;;;;19.48;6.50;;;8.40;49.40;;;;;;5021803;28;20045;-64
2022/02/28 15:46:20;;;;;;;11.85;5.63;;;8.50;47.60;;;;;;5022520;28;20095;-65
2022/02/28 15:48:45;;;;;;;9.95;5.15;;;8.50;48.70;;;;;;5023765;28;20231;-65
2022/02/28 15:51:11;;;;;;;14.18;5.97;;;8.50;46.50;;;;;;5023407;28;20042;-64
2022/02/28 15:53:37;;;;;;;9.20;5.05;;;8.30;46.20;;;;;;5022743;28;20030;-64
2022/02/28 15:56:03;;;;;;;12.00;6.22;;;8.40;48.20;;;;;;5022385;28;20770;-65
2022/02/28 15:58:29;;;;;;;10.60;5.78;;;8.60;46.80;;;;;;5019593;28;20501;-64
2022/02/28 16:00:55;;;;;;;11.98;5.63;;;8.60;47.60;;;;;;5022701;28;20044;-64
2022/02/28 16:03:20;;;;;;;11.65;5.55;;;8.60;48.20;;;;;;5022797;28;20030;-64
2022/02/28 16:05:46;;;;;;;10.93;6.10;;;8.50;48.60;;;;;;5022266;28;20033;-64
2022/02/28 16:08:12;;;;;;;13.02;6.68;;;8.40;47.80;;;;;;5022575;28;20374;-64
2022/02/28 16:10:38;;;;;;;11.13;5.28;;;8.10;46.90;;;;;;5021484;28;20119;-64
2022/02/28 16:13:05;;;;;;;13.63;5.90;;;7.60;48.90;;;;;;5019698;28;20048;-64
2022/02/28 16:15:31;;;;;;;10.82;5.38;;;7.50;48.60;;;;;;5021713;28;20580;-64
2022/02/28 16:17:56;;;;;;;12.50;5.93;;;7.40;49.00;;;;;;5022130;28;20095;-64
2022/02/28 16:20:25;;;;;;;12.90;5.45;;;7.30;50.20;;;;;;5019201;28;20061;-64
2022/02/28 16:22:51;;;;;;;13.73;5.80;;;7.30;51.30;;;;;;5021696;28;20045;-64
2022/02/28 16:25:17;;;;;;;12.02;5.97;;;7.30;50.20;;;;;;5020961;28;20107;-64
2022/02/28 16:27:45;;;;;;;10.45;5.32;;;7.20;50.10;;;;;;5022892;28;20432;-65
2022/02/28 16:30:14;;;;;;;12.23;5.35;;;7.30;51.90;;;;;;5018224;28;20053;-64
2022/02/28 16:32:39;;;;;;;10.43;4.93;;;7.40;51.60;;;;;;5022658;28;20033;-65
2022/02/28 16:35:07;;;;;;;12.65;5.93;;;7.50;53.00;;;;;;5021161;28;20036;-65
2022/02/28 16:37:36;;;;;;;11.93;5.13;;;7.80;51.90;;;;;;5021476;28;20029;-65
2022/02/28 16:40:06;;;;;;;10.65;5.07;;;8.20;51.80;;;;;;5021939;28;20397;-65
2022/02/28 16:42:32;;;;;;;10.52;5.32;;;8.40;49.80;;;;;;5022129;28;20379;-65
2022/02/28 16:44:57;;;;;;;11.77;5.40;;;8.60;48.70;;;;;;5020025;28;20044;-65
2022/02/28 16:47:25;;;;;;;10.00;4.93;;;8.60;48.00;;;;;;5018211;28;20136;-65
2022/02/28 16:49:51;;;;;;;10.50;5.38;;;8.70;49.30;;;;;;5020528;28;20111;-65
2022/02/28 16:52:17;;;;;;;10.02;4.88;;;8.80;49.20;;;;;;5022452;28;20096;-65
2022/02/28 16:54:42;;;;;;;12.13;5.63;;;8.90;48.30;;;;;;5024570;28;20464;-64
2022/02/28 16:57:08;;;;;;;10.85;5.47;;;8.90;46.40;;;;;;5021692;28;20036;-65
2022/02/28 16:59:34;;;;;;;8.68;4.75;;;8.60;49.00;;;;;;5021642;28;20384;-64
2022/02/28 17:02:00;;;;;;;10.57;5.53;;;8.10;49.30;;;;;;5019652;28;20036;-65
2022/02/28 17:04:26;;;;;;;10.85;5.35;;;8.10;49.20;;;;;;5020327;28;20033;-63
2022/02/28 17:06:51;;;;;;;9.38;5.32;;;8.00;50.20;;;;;;5019029;28;20030;-63
2022/02/28 17:09:17;;;;;;;10.27;5.35;;;7.70;51.00;;;;;;5022388;28;20037;-62
2022/02/28 17:11:43;;;;;;;10.77;5.70;;;7.20;51.80;;;;;;5021706;28;20051;-63
2022/02/28 17:14:09;;;;;;;12.85;5.90;;;6.80;53.40;;;;;;5022596;28;20034;-63
2022/02/28 17:16:35;;;;;;;10.73;5.63;;;6.40;54.20;;;;;;5021710;28;20044;-63
2022/02/28 17:19:01;;;;;;;12.10;6.05;;;6.00;55.30;;;;;;5017948;28;20025;-64
2022/02/28 17:21:27;;;;;;;16.00;5.85;;;5.70;56.60;;;;;;5022760;28;20044;-65
2022/02/28 17:23:53;;;;;;;11.43;4.82;;;5.40;57.70;;;;;;5020979;28;20033;-65
2022/02/28 17:26:21;;;;;;;11.38;5.20;;;5.10;58.90;;;;;;5020595;28;20033;-67
2022/02/28 17:28:47;;;;;;;12.88;5.68;;;4.80;59.60;;;;;;5020927;28;20041;-63
2022/02/28 17:31:14;;;;;;;8.57;4.72;;;4.60;60.50;;;;;;5020867;28;20040;-63
2022/02/28 17:33:43;;;;;;;10.57;4.93;;;4.40;61.60;;;;;;5019945;28;20037;-65
2022/02/28 17:36:13;;;;;;;11.57;5.47;;;4.30;62.20;;;;;;5020810;28;20057;-65
2022/02/28 17:38:40;;;;;;;12.32;5.68;;;4.10;62.40;;;;;;5020885;28;20031;-65
2022/02/28 17:41:07;;;;;;;11.93;5.90;;;4.00;63.30;;;;;;5022266;28;20477;-64
2022/02/28 17:43:33;;;;;;;10.85;5.25;;;3.90;63.60;;;;;;5020742;28;20041;-66
2022/02/28 17:45:59;;;;;;;12.60;5.38;;;3.70;63.90;;;;;;5019546;28;20030;-66
2022/02/28 17:48:26;;;;;;;16.75;6.40;;;3.60;65.70;;;;;;5020582;28;20048;-64
2022/02/28 17:50:52;;;;;;;13.70;5.35;;;3.50;63.70;;;;;;5020816;28;20103;-66
2022/02/28 17:53:19;;;;;;;16.63;6.72;;;3.50;64.00;;;;;;5020592;28;20045;-66
2022/02/28 17:55:46;;;;;;;20.27;7.35;;;3.40;64.00;;;;;;5016066;28;20486;-66
2022/02/28 17:58:13;;;;;;;19.25;8.65;;;3.30;64.30;;;;;;5020362;28;20041;-67
2022/02/28 18:00:39;;;;;;;19.27;7.72;;;3.30;65.20;;;;;;5019116;28;20079;-64
2022/02/28 18:03:05;;;;;;;16.08;7.57;;;3.20;66.10;;;;;;5018982;28;20033;-66
2022/02/28 18:05:32;;;;;;;14.98;6.47;;;3.20;66.30;;;;;;5019977;28;20037;-66
2022/02/28 18:07:57;;;;;;;14.30;6.63;;;3.10;66.30;;;;;;5020474;28;20144;-66
2022/02/28 18:10:25;;;;;;;15.55;6.50;;;3.10;65.90;;;;;;5020110;28;20044;-64
2022/02/28 18:12:50;;;;;;;14.93;6.47;;;3.00;66.30;;;;;;5020267;28;20037;-65
2022/02/28 18:15:16;;;;;;;15.45;6.97;;;3.00;66.70;;;;;;5019850;28;20111;-65
2022/02/28 18:17:44;;;;;;;14.48;6.53;;;2.90;66.70;;;;;;5020710;28;20041;-65
2022/02/28 18:20:11;;;;;;;15.75;7.05;;;2.90;66.70;;;;;;5018341;28;20040;-66
2022/02/28 18:22:36;;;;;;;16.77;7.53;;;2.80;66.70;;;;;;5021293;28;20048;-65
2022/02/28 18:25:07;;;;;;;18.38;8.50;;;2.70;67.60;;;;;;5020547;28;20025;-66
2022/02/28 18:27:33;;;;;;;23.00;9.30;;;2.70;69.00;;;;;;5021350;28;20045;-65
2022/02/28 18:29:59;;;;;;;23.05;9.77;;;2.60;68.80;;;;;;5020672;28;20041;-65
2022/02/28 18:32:38;;;;;;;24.35;10.10;;;2.50;69.10;;;;;;5020924;28;20026;-69
2022/02/28 18:35:12;;;;;;;17.50;8.68;;;2.50;69.20;;;;;;5019893;28;20029;-69
2022/02/28 18:37:40;;;;;;;18.60;8.65;;;2.40;69.70;;;;;;5021531;28;20559;-69
2022/02/28 18:40:07;;;;;;;19.40;8.25;;;2.40;70.30;;;;;;5020267;28;20033;-70
2022/02/28 18:42:33;;;;;;;15.00;7.97;;;2.30;70.70;;;;;;5020278;28;20041;-69
2022/02/28 18:44:59;;;;;;;16.83;8.23;;;2.20;70.40;;;;;;5018309;28;20037;-70
2022/02/28 18:47:24;;;;;;;19.73;7.65;;;2.20;70.20;;;;;;5018980;28;20029;-69
2022/02/28 18:49:53;;;;;;;18.95;9.05;;;2.20;70.70;;;;;;5018741;28;20103;-69
2022/02/28 18:52:20;;;;;;;20.98;9.13;;;2.10;71.10;;;;;;5018830;28;20144;-69
2022/02/28 18:54:46;;;;;;;22.25;9.65;;;2.10;71.40;;;;;;5022508;28;20132;-70
2022/02/28 18:57:12;;;;;;;20.55;10.25;;;2.00;70.60;;;;;;5023182;28;20524;-69
2022/02/28 18:59:38;;;;;;;21.98;9.60;;;2.00;69.80;;;;;;5023234;28;20034;-70
2022/02/28 19:02:05;;;;;;;19.20;8.80;;;1.90;70.50;;;;;;5023983;28;20564;-70
2022/02/28 19:04:32;;;;;;;19.08;8.27;;;1.90;71.20;;;;;;5024388;28;20059;-69
2022/02/28 19:06:58;;;;;;;17.17;7.55;;;1.90;71.60;;;;;;5022276;28;20537;-70
2022/02/28 19:09:26;;;;;;;13.88;6.07;;;1.90;70.70;;;;;;5022236;28;20038;-69
2022/02/28 19:11:53;;;;;;;17.48;6.60;;;1.90;69.90;;;;;;5024475;28;20704;-70
2022/02/28 19:14:21;;;;;;;12.98;6.00;;;1.90;68.60;;;;;;5021340;28;20029;-69
2022/02/28 19:16:50;;;;;;;13.93;5.20;;;2.00;67.70;;;;;;5023727;28;20021;-70
2022/02/28 19:19:23;;;;;;;14.43;5.22;;;2.00;67.20;;;;;;5024200;28;20033;-70
2022/02/28 19:21:51;;;;;;;11.77;4.55;;;2.10;66.10;;;;;;5021531;28;20041;-70
2022/02/28 19:24:17;;;;;;;11.50;5.38;;;2.20;64.80;;;;;;5023903;28;20033;-70